createdAt,value
2019-06-07T00:01:54.871Z,73.50
2019-06-07T00:04:22.598Z,73.30
2019-06-07T00:06:50.346Z,73.30
2019-06-07T00:09:22.390Z,73.50
2019-06-07T00:11:47.779Z,73.50
2019-06-07T00:14:16.687Z,73.40
2019-06-07T00:16:45.229Z,73.40
2019-06-07T00:19:15.883Z,73.50
2019-06-07T00:22:13.478Z,73.50
2019-06-07T00:24:14.295Z,73.50
2019-06-07T00:26:57.027Z,73.30
2019-06-07T00:29:13.795Z,73.40
2019-06-07T00:31:39.859Z,73.50
2019-06-07T00:34:10.739Z,73.60
2019-06-07T00:36:38.722Z,73.70
2019-06-07T00:39:07.504Z,73.70
2019-06-07T00:41:35.300Z,73.70
2019-06-07T00:44:23.455Z,73.60
2019-06-07T00:46:51.450Z,73.50
2019-06-07T00:49:36.100Z,73.60
2019-06-07T00:51:51.194Z,73.70
2019-06-07T00:54:19.831Z,73.70
2019-06-07T00:56:47.320Z,73.70
2019-06-07T00:59:18.419Z,73.80
2019-06-07T01:01:44.701Z,73.70
2019-06-07T01:04:13.124Z,73.70
2019-06-07T01:06:41.714Z,73.60
2019-06-07T01:09:09.454Z,73.70
2019-06-07T01:11:37.257Z,73.60
2019-06-07T01:14:05.224Z,73.70
2019-06-07T01:16:55.562Z,73.70
2019-06-07T01:19:02.811Z,73.60
2019-06-07T01:21:30.540Z,73.70
2019-06-07T01:24:11.661Z,73.70
2019-06-07T01:26:30.371Z,73.70
2019-06-07T01:28:57.441Z,73.60
2019-06-07T01:31:27.897Z,73.70
2019-06-07T01:33:54.532Z,73.60
2019-06-07T01:36:24.388Z,73.60
2019-06-07T01:38:51.632Z,73.60
2019-06-07T01:41:22.074Z,73.50
2019-06-07T01:43:48.751Z,73.60
2019-06-07T01:46:16.481Z,73.60
2019-06-07T01:48:49.426Z,73.50
2019-06-07T01:51:13.924Z,73.50
2019-06-07T01:53:41.786Z,73.50
2019-06-07T01:56:09.507Z,73.60
2019-06-07T01:58:40.178Z,73.60
2019-06-07T02:01:11.071Z,73.60
2019-06-07T02:03:38.833Z,73.50
2019-06-07T02:06:09.509Z,73.60
2019-06-07T02:08:37.327Z,73.70
2019-06-07T02:11:05.062Z,73.70
2019-06-07T02:13:32.904Z,73.60
2019-06-07T02:16:00.701Z,73.60
2019-06-07T02:18:34.336Z,73.60
2019-06-07T02:20:57.799Z,73.50
2019-06-07T02:23:29.216Z,73.60
2019-06-07T02:25:54.903Z,73.60
2019-06-07T02:28:32.053Z,73.60
2019-06-07T02:30:59.780Z,73.70
2019-06-07T02:33:25.807Z,73.50
2019-06-07T02:35:51.064Z,73.70
2019-06-07T02:38:18.788Z,73.60
2019-06-07T02:40:46.525Z,73.60
2019-06-07T02:43:14.250Z,73.50
2019-06-07T02:45:43.265Z,73.50
2019-06-07T02:48:11.367Z,73.50
2019-06-07T02:50:39.130Z,73.50
2019-06-07T02:53:08.539Z,73.50
2019-06-07T02:56:26.226Z,73.50
2019-06-07T02:58:06.592Z,73.50
2019-06-07T03:01:00.285Z,73.60
2019-06-07T03:03:12.220Z,73.60
2019-06-07T03:05:41.532Z,73.60
2019-06-07T03:08:09.378Z,74.30
2019-06-07T03:10:41.601Z,73.60
2019-06-07T03:13:08.433Z,73.60
2019-06-07T03:15:47.870Z,73.60
2019-06-07T03:18:07.461Z,73.60
2019-06-07T03:20:37.135Z,73.60
2019-06-07T03:23:04.840Z,73.60
2019-06-07T03:25:37.264Z,73.60
2019-06-07T03:28:08.060Z,73.70
2019-06-07T03:30:48.184Z,74.30
2019-06-07T03:33:05.191Z,73.70
2019-06-07T03:35:34.731Z,73.60
2019-06-07T03:38:02.441Z,73.70
2019-06-07T03:40:31.679Z,73.60
2019-06-07T03:42:59.830Z,73.60
2019-06-07T03:45:29.004Z,73.60
2019-06-07T03:47:57.588Z,73.70
2019-06-07T03:50:25.446Z,73.70
2019-06-07T03:52:53.560Z,73.60
2019-06-07T03:55:21.320Z,73.70
2019-06-07T04:00:18.433Z,73.60
2019-06-07T04:02:46.202Z,73.50
2019-06-07T04:05:13.915Z,73.30
2019-06-07T04:07:44.349Z,73.80
2019-06-07T04:10:11.438Z,73.50
2019-06-07T04:12:43.784Z,73.30
2019-06-07T04:15:08.938Z,73.10
2019-06-07T04:17:41.128Z,73.10
2019-06-07T04:20:06.087Z,73.80
2019-06-07T04:22:38.844Z,73.90
2019-06-07T04:25:04.892Z,73.70
2019-06-07T04:27:33.085Z,73.60
2019-06-07T04:30:07.328Z,73.50
2019-06-07T04:32:31.581Z,73.50
2019-06-07T04:34:59.872Z,73.40
2019-06-07T04:37:28.495Z,73.40
2019-06-07T04:39:56.394Z,73.30
2019-06-07T04:42:24.101Z,73.40
2019-06-07T04:44:51.837Z,73.30
2019-06-07T04:47:19.841Z,73.30
2019-06-07T04:49:48.517Z,73.30
2019-06-07T04:52:16.256Z,73.30
2019-06-07T04:54:45.973Z,73.10
2019-06-07T04:57:13.858Z,73.20
2019-06-07T05:00:11.138Z,73.10
2019-06-07T05:02:11.361Z,73.00
2019-06-07T05:04:42.087Z,72.90
2019-06-07T05:07:08.977Z,72.80
2019-06-07T05:09:42.539Z,72.80
2019-06-07T05:12:10.703Z,72.90
2019-06-07T05:14:39.967Z,72.90
2019-06-07T05:17:08.602Z,72.50
2019-06-07T05:19:43.719Z,72.30
2019-06-07T05:22:09.026Z,72.10
2019-06-07T05:24:40.395Z,72.50
2019-06-07T05:27:08.227Z,71.80
2019-06-07T05:29:39.256Z,71.70
2019-06-07T05:32:05.532Z,71.80
2019-06-07T05:34:34.570Z,71.40
2019-06-07T05:37:11.441Z,71.50
2019-06-07T05:39:32.757Z,71.70
2019-06-07T05:42:01.561Z,71.70
2019-06-07T05:44:29.292Z,71.70
2019-06-07T05:46:57.044Z,71.80
2019-06-07T05:49:24.780Z,71.80
2019-06-07T05:51:52.855Z,71.90
2019-06-07T05:54:20.864Z,71.90
2019-06-07T05:56:48.590Z,71.90
2019-06-07T05:59:16.322Z,72.10
2019-06-07T06:01:54.552Z,72.10
2019-06-07T06:04:13.445Z,72.10
2019-06-07T06:06:44.742Z,72.00
2019-06-07T06:09:13.940Z,72.20
2019-06-07T06:11:49.336Z,72.10
2019-06-07T06:14:09.917Z,72.20
2019-06-07T06:16:39.731Z,72.20
2019-06-07T06:19:08.679Z,72.30
2019-06-07T06:21:38.628Z,72.30
2019-06-07T06:24:09.119Z,72.30
2019-06-07T06:26:46.234Z,72.30
2019-06-07T06:29:10.933Z,72.40
2019-06-07T06:31:49.415Z,72.30
2019-06-07T06:34:08.186Z,72.40
2019-06-07T06:36:37.410Z,72.40
2019-06-07T06:39:07.488Z,72.50
2019-06-07T06:41:49.429Z,72.50
2019-06-07T06:44:05.539Z,72.60
2019-06-07T06:46:38.929Z,72.70
2019-06-07T06:49:02.771Z,72.80
2019-06-07T06:51:30.674Z,72.80
2019-06-07T06:53:58.593Z,72.90
2019-06-07T06:56:26.383Z,72.90
2019-06-07T07:01:23.523Z,72.90
2019-06-07T07:04:11.064Z,72.60
2019-06-07T07:06:26.523Z,72.60
2019-06-07T07:08:51.416Z,72.40
2019-06-07T07:11:23.103Z,72.40
2019-06-07T07:13:55.778Z,72.30
2019-06-07T07:16:18.936Z,72.40
2019-06-07T07:18:51.070Z,72.40
2019-06-07T07:21:16.263Z,72.30
2019-06-07T07:24:08.138Z,72.40
2019-06-07T07:26:13.820Z,72.20
2019-06-07T07:28:43.058Z,72.00
2019-06-07T07:31:11.680Z,72.00
2019-06-07T07:36:23.187Z,72.30
2019-06-07T07:38:38.251Z,72.30
2019-06-07T07:41:14.444Z,72.30
2019-06-07T07:43:35.440Z,72.90
2019-06-07T07:46:12.507Z,72.30
2019-06-07T07:48:32.522Z,72.40
2019-06-07T07:51:02.977Z,72.40
2019-06-07T07:53:47.958Z,72.70
2019-06-07T07:56:00.345Z,72.60
2019-06-07T07:58:28.432Z,72.80
2019-06-07T08:01:07.833Z,72.70
2019-06-07T08:03:25.831Z,72.80
2019-06-07T08:05:57.225Z,72.70
2019-06-07T08:08:23.168Z,72.70
2019-06-07T08:10:52.600Z,72.90
2019-06-07T08:13:25.428Z,72.90
2019-06-07T08:15:53.319Z,72.90
2019-06-07T08:18:19.276Z,72.90
2019-06-07T08:21:08.681Z,73.20
2019-06-07T08:23:16.596Z,72.90
2019-06-07T08:25:44.491Z,72.70
2019-06-07T08:28:12.689Z,72.40
2019-06-07T08:30:52.443Z,72.40
2019-06-07T08:33:25.311Z,72.40
2019-06-07T08:38:25.314Z,72.30
2019-06-07T08:40:38.261Z,72.30
2019-06-07T08:43:19.580Z,72.30
2019-06-07T08:45:35.567Z,72.20
2019-06-07T08:48:09.476Z,72.10
2019-06-07T08:50:33.124Z,71.90
2019-06-07T08:53:11.038Z,71.90
2019-06-07T08:55:30.354Z,71.90
2019-06-07T08:58:05.785Z,72.00
2019-06-07T09:00:47.232Z,71.90
2019-06-07T09:03:02.839Z,71.80
2019-06-07T09:05:27.184Z,71.70
2019-06-07T09:08:21.073Z,71.90
2019-06-07T09:10:24.458Z,71.70
2019-06-07T09:12:57.870Z,71.70
2019-06-07T09:15:24.140Z,71.20
2019-06-07T09:20:35.808Z,71.10
2019-06-07T09:22:50.181Z,71.60
2019-06-07T09:25:21.798Z,71.80
2019-06-07T09:27:47.373Z,71.90
2019-06-07T09:30:18.980Z,72.00
2019-06-07T09:32:47.065Z,72.30
2019-06-07T09:35:17.660Z,72.20
2019-06-07T09:40:24.867Z,72.50
2019-06-07T09:42:43.694Z,72.70
2019-06-07T09:45:13.919Z,71.50
2019-06-07T09:47:40.935Z,71.00
2019-06-07T09:50:11.971Z,70.60
2019-06-07T09:52:57.253Z,70.50
2019-06-07T09:55:22.524Z,70.60
2019-06-07T09:57:39.296Z,70.80
2019-06-07T10:00:36.815Z,71.10
2019-06-07T10:02:38.249Z,71.00
2019-06-07T10:05:12.187Z,70.90
2019-06-07T10:07:35.779Z,70.50
2019-06-07T10:10:25.600Z,70.00
2019-06-07T10:12:33.724Z,69.80
2019-06-07T10:15:01.528Z,69.00
2019-06-07T10:17:30.769Z,69.20
2019-06-07T10:20:00.515Z,69.40
2019-06-07T10:22:27.977Z,69.30
2019-06-07T10:24:55.784Z,70.00
2019-06-07T10:27:23.885Z,70.30
2019-06-07T10:29:51.683Z,70.40
2019-06-07T10:32:19.886Z,70.60
2019-06-07T10:34:47.776Z,70.70
2019-06-07T10:37:15.973Z,70.60
2019-06-07T10:39:48.458Z,70.70
2019-06-07T10:42:13.428Z,70.90
2019-06-07T10:44:41.234Z,70.90
2019-06-07T10:47:10.072Z,71.60
2019-06-07T10:49:38.180Z,71.90
2019-06-07T10:52:07.914Z,70.00
2019-06-07T10:54:35.522Z,70.30
2019-06-07T10:57:04.749Z,70.00
2019-06-07T10:59:32.631Z,69.90
2019-06-07T11:02:00.354Z,71.00
2019-06-07T11:04:28.133Z,71.00
2019-06-07T11:06:56.033Z,70.60
2019-06-07T11:09:23.849Z,70.70
2019-06-07T11:11:51.951Z,70.60
2019-06-07T11:14:19.749Z,70.70
2019-06-07T11:16:47.537Z,70.70
2019-06-07T11:19:17.794Z,69.60
2019-06-07T11:21:44.705Z,70.60
2019-06-07T11:24:12.558Z,70.70
2019-06-07T11:26:40.350Z,70.90
2019-06-07T11:29:08.945Z,71.20
2019-06-07T11:31:37.292Z,71.00
2019-06-07T11:34:06.250Z,70.00
2019-06-07T11:36:34.212Z,70.20
2019-06-07T11:39:01.991Z,70.70
2019-06-07T11:41:29.779Z,71.10
2019-06-07T11:43:57.513Z,71.00
2019-06-07T11:46:25.383Z,70.80
2019-06-07T11:48:53.174Z,70.50
2019-06-07T11:51:20.962Z,70.30
2019-06-07T11:53:49.182Z,71.10
2019-06-07T11:56:18.046Z,70.30
2019-06-07T11:58:46.092Z,70.20
2019-06-07T12:01:14.905Z,70.10
2019-06-07T12:03:43.715Z,70.50
2019-06-07T12:06:12.029Z,70.40
2019-06-07T12:08:40.143Z,70.80
2019-06-07T12:11:12.202Z,70.90
2019-06-07T12:13:40.031Z,71.10
2019-06-07T12:16:11.143Z,70.90
2019-06-07T12:18:39.105Z,70.80
2019-06-07T12:21:09.599Z,70.80
2019-06-07T12:23:37.671Z,70.90
2019-06-07T12:26:05.455Z,70.80
2019-06-07T12:28:33.235Z,70.10
2019-06-07T12:31:01.137Z,70.40
2019-06-07T12:33:28.862Z,70.50
2019-06-07T12:35:56.720Z,70.50
2019-06-07T12:38:24.611Z,70.80
2019-06-07T12:40:57.536Z,70.50
2019-06-07T12:43:23.335Z,70.60
2019-06-07T12:45:51.427Z,70.70
2019-06-07T12:48:22.755Z,71.10
2019-06-07T12:50:48.803Z,72.00
2019-06-07T12:53:17.839Z,71.80
2019-06-07T12:55:46.031Z,72.00
2019-06-07T12:58:13.930Z,71.70
2019-06-07T13:00:41.745Z,72.20
2019-06-07T13:03:09.507Z,71.90
2019-06-07T13:05:40.197Z,72.10
2019-06-07T13:08:08.343Z,71.60
2019-06-07T13:10:36.501Z,71.50
2019-06-07T13:13:04.225Z,71.50
2019-06-07T13:15:32.077Z,71.70
2019-06-07T13:17:59.875Z,71.70
2019-06-07T13:20:28.840Z,71.80
2019-06-07T13:22:56.800Z,71.80
2019-06-07T13:25:41.125Z,71.30
2019-06-07T13:27:54.069Z,70.40
2019-06-07T13:30:23.460Z,70.90
2019-06-07T13:32:51.701Z,70.10
2019-06-07T13:35:21.534Z,70.10
2019-06-07T13:37:48.919Z,69.80
2019-06-07T13:40:19.266Z,69.70
2019-06-07T13:42:46.570Z,69.90
2019-06-07T13:45:14.372Z,69.60
2019-06-07T13:47:42.072Z,69.50
2019-06-07T13:50:09.973Z,69.60
2019-06-07T13:52:39.908Z,69.70
2019-06-07T13:55:10.708Z,69.90
2019-06-07T13:57:38.478Z,70.00
2019-06-07T14:00:11.536Z,70.00
2019-06-07T14:02:39.605Z,69.50
2019-06-07T14:05:07.999Z,69.70
2019-06-07T14:07:35.736Z,69.90
2019-06-07T14:10:05.132Z,69.50
2019-06-07T14:12:33.299Z,69.50
2019-06-07T14:15:01.130Z,69.60
2019-06-07T14:17:30.917Z,69.60
2019-06-07T14:19:58.858Z,69.50
2019-06-07T14:22:26.892Z,69.80
2019-06-07T14:24:54.773Z,69.90
2019-06-07T14:27:23.414Z,70.10
2019-06-07T14:29:51.540Z,69.80
2019-06-07T14:32:19.306Z,69.90
2019-06-07T14:34:47.200Z,70.60
2019-06-07T14:37:15.300Z,69.70
2019-06-07T14:39:43.187Z,69.90
2019-06-07T14:42:10.910Z,70.00
2019-06-07T14:44:38.768Z,69.70
2019-06-07T14:47:07.485Z,70.10
2019-06-07T14:49:35.264Z,69.50
2019-06-07T14:52:02.994Z,69.60
2019-06-07T14:54:32.276Z,69.60
2019-06-07T14:57:03.057Z,69.60
2019-06-07T14:59:30.510Z,70.00
2019-06-07T15:01:58.479Z,69.90
2019-06-07T15:04:26.484Z,70.20
2019-06-07T15:06:54.340Z,70.40
2019-06-07T15:09:22.132Z,70.40
2019-06-07T15:11:49.850Z,70.70
2019-06-07T15:14:17.613Z,70.70
2019-06-07T15:16:45.516Z,70.80
2019-06-07T15:19:16.581Z,70.80
2019-06-07T15:21:54.383Z,70.90
2019-06-07T15:24:21.386Z,70.70
2019-06-07T15:26:49.171Z,70.20
2019-06-07T15:29:17.098Z,70.30
2019-06-07T15:31:44.880Z,70.50
2019-06-07T15:34:12.670Z,70.70
2019-06-07T15:36:40.778Z,70.50
2019-06-07T15:39:08.543Z,70.30
2019-06-07T15:41:37.378Z,70.00
2019-06-07T15:44:05.422Z,70.30
2019-06-07T15:46:33.660Z,70.40
2019-06-07T15:49:01.831Z,70.70
2019-06-07T15:51:30.632Z,70.90
2019-06-07T15:53:58.437Z,70.70
2019-06-07T15:56:26.426Z,70.70
2019-06-07T15:58:54.241Z,70.70
2019-06-07T16:01:22.025Z,70.50
2019-06-07T16:03:49.830Z,70.80
2019-06-07T16:06:19.589Z,70.70
2019-06-07T16:08:47.047Z,70.60
2019-06-07T16:11:14.791Z,70.70
2019-06-07T16:13:42.904Z,70.80
2019-06-07T16:16:11.201Z,70.90
2019-06-07T16:18:39.729Z,71.40
2019-06-07T16:21:09.251Z,71.20
2019-06-07T16:23:39.858Z,71.30
2019-06-07T16:26:09.551Z,71.50
2019-06-07T16:28:40.522Z,71.50
2019-06-07T16:31:08.240Z,71.50
2019-06-07T16:33:36.699Z,71.50
2019-06-07T16:36:04.584Z,71.60
2019-06-07T16:38:32.400Z,72.00
2019-06-07T16:41:00.117Z,71.80
2019-06-07T16:43:27.897Z,71.50
2019-06-07T16:45:55.689Z,71.40
2019-06-07T16:48:23.568Z,71.70
2019-06-07T16:50:51.308Z,71.70
2019-06-07T16:53:19.051Z,71.70
2019-06-07T16:55:46.849Z,71.90
2019-06-07T16:58:14.577Z,72.10
2019-06-07T17:00:42.460Z,72.00
2019-06-07T17:03:10.361Z,72.00
2019-06-07T17:05:39.313Z,72.10
2019-06-07T17:08:08.185Z,71.80
2019-06-07T17:10:38.100Z,72.00
2019-06-07T17:13:05.428Z,72.00
2019-06-07T17:15:33.219Z,72.00
2019-06-07T17:18:01.120Z,72.10
2019-06-07T17:20:29.004Z,72.10
2019-06-07T17:22:56.879Z,72.10
2019-06-07T17:25:24.788Z,72.20
2019-06-07T17:27:52.578Z,72.10
2019-06-07T17:30:20.369Z,72.90
2019-06-07T17:32:56.973Z,72.10
2019-06-07T17:35:17.826Z,72.00
2019-06-07T17:37:47.267Z,72.00
2019-06-07T17:40:15.529Z,72.00
2019-06-07T17:42:43.312Z,72.10
2019-06-07T17:45:12.742Z,72.10
2019-06-07T17:47:41.610Z,72.20
2019-06-07T17:50:10.073Z,72.30
2019-06-07T17:52:39.528Z,72.30
2019-06-07T17:55:10.192Z,72.50
2019-06-07T17:57:42.136Z,72.40
2019-06-07T18:00:28.246Z,72.60
2019-06-07T18:02:43.021Z,72.50
2019-06-07T18:05:10.961Z,72.50
2019-06-07T18:07:38.755Z,72.50
2019-06-07T18:10:08.835Z,72.70
2019-06-07T18:12:39.243Z,72.40
2019-06-07T18:15:08.923Z,72.40
2019-06-07T18:17:39.745Z,72.60
2019-06-07T18:20:09.169Z,72.70
2019-06-07T18:22:38.913Z,72.50
2019-06-07T18:25:07.118Z,72.60
2019-06-07T18:27:34.910Z,72.40
2019-06-07T18:30:11.164Z,72.50
2019-06-07T18:32:32.239Z,73.00
2019-06-07T18:35:00.523Z,72.20
2019-06-07T18:37:28.446Z,72.30
2019-06-07T18:39:56.250Z,72.40
2019-06-07T18:42:24.461Z,72.50
2019-06-07T18:44:53.125Z,72.30
2019-06-07T18:47:21.072Z,72.20
2019-06-07T18:49:49.543Z,72.20
2019-06-07T18:52:19.123Z,72.20
2019-06-07T18:54:46.928Z,72.10
2019-06-07T18:57:14.691Z,72.00
2019-06-07T18:59:43.334Z,71.70
2019-06-07T19:02:11.138Z,71.70
2019-06-07T19:04:38.928Z,71.60
2019-06-07T19:07:06.830Z,71.30
2019-06-07T19:09:34.723Z,71.50
2019-06-07T19:12:02.512Z,71.50
2019-06-07T19:14:37.064Z,71.50
2019-06-07T19:16:59.848Z,71.60
2019-06-07T19:19:27.633Z,71.60
2019-06-07T19:21:56.106Z,71.60
2019-06-07T19:24:25.309Z,71.80
2019-06-07T19:26:54.469Z,72.10
2019-06-07T19:29:23.127Z,72.20
2019-06-07T19:31:52.958Z,72.30
2019-06-07T19:34:21.268Z,72.30
2019-06-07T19:36:49.265Z,72.30
2019-06-07T19:39:18.070Z,72.30
2019-06-07T19:41:46.669Z,72.20
2019-06-07T19:44:14.791Z,72.20
2019-06-07T19:46:42.658Z,72.30
2019-06-07T19:49:11.229Z,72.40
2019-06-07T19:51:40.584Z,72.50
2019-06-07T19:54:09.089Z,72.50
2019-06-07T19:56:39.063Z,72.50
2019-06-07T19:59:07.980Z,72.40
2019-06-07T20:01:36.679Z,72.50
2019-06-07T20:04:05.074Z,72.60
2019-06-07T20:06:33.110Z,72.50
2019-06-07T20:09:02.806Z,72.70
2019-06-07T20:11:31.396Z,72.80
2019-06-07T20:14:00.780Z,72.70
2019-06-07T20:16:29.257Z,72.60
2019-06-07T20:18:58.144Z,72.70
2019-06-07T20:21:26.320Z,72.60
2019-06-07T20:23:54.117Z,72.70
2019-06-07T20:26:21.893Z,73.30
2019-06-07T20:28:49.694Z,72.80
2019-06-07T20:31:17.411Z,72.90
2019-06-07T20:33:45.129Z,72.80
2019-06-07T20:36:12.859Z,72.90
2019-06-07T20:38:40.885Z,72.90
2019-06-07T20:41:08.696Z,73.10
2019-06-07T20:43:39.188Z,72.90
2019-06-07T20:46:08.564Z,73.00
2019-06-07T20:48:39.131Z,73.00
2019-06-07T20:51:08.762Z,73.00
2019-06-07T20:53:39.308Z,73.00
2019-06-07T20:56:09.224Z,73.10
2019-06-07T20:58:38.637Z,73.80
2019-06-07T21:01:09.197Z,73.20
2019-06-07T21:03:38.569Z,73.20
2019-06-07T21:06:09.857Z,73.20
2019-06-07T21:08:39.366Z,73.20
2019-06-07T21:11:10.107Z,73.20
2019-06-07T21:13:40.833Z,73.20
2019-06-07T21:16:08.582Z,73.10
2019-06-07T21:18:39.036Z,73.10
2019-06-07T21:21:06.878Z,73.30
2019-06-07T21:23:34.935Z,73.00
2019-06-07T21:26:02.881Z,73.20
2019-06-07T21:28:31.259Z,73.30
2019-06-07T21:30:59.004Z,73.40
2019-06-07T21:33:27.102Z,73.50
2019-06-07T21:35:54.847Z,73.50
2019-06-07T21:38:22.569Z,73.50
2019-06-07T21:40:50.325Z,73.60
2019-06-07T21:43:18.057Z,74.10
2019-06-07T21:45:45.987Z,73.70
2019-06-07T21:48:14.423Z,73.40
2019-06-07T21:50:42.270Z,73.60
2019-06-07T21:53:10.719Z,73.20
2019-06-07T21:55:38.867Z,73.30
2019-06-07T21:58:07.161Z,73.50
2019-06-07T22:00:43.526Z,73.10
2019-06-07T22:03:11.556Z,73.20
2019-06-07T22:05:39.289Z,73.60
2019-06-07T22:08:08.667Z,73.50
2019-06-07T22:10:39.220Z,73.50
2019-06-07T22:13:08.602Z,73.30
2019-06-07T22:15:38.826Z,73.80
2019-06-07T22:18:08.459Z,73.50
2019-06-07T22:20:38.570Z,73.50
2019-06-07T22:23:08.610Z,73.30
2019-06-07T22:25:37.443Z,73.50
2019-06-07T22:28:06.020Z,73.30
2019-06-07T22:30:33.815Z,73.50
2019-06-07T22:33:01.857Z,73.60
2019-06-07T22:35:29.581Z,73.40
2019-06-07T22:37:57.310Z,73.60
2019-06-07T22:40:25.017Z,73.50
2019-06-07T22:42:52.771Z,73.70
2019-06-07T22:45:20.710Z,73.40
2019-06-07T22:47:48.622Z,73.40
2019-06-07T22:50:16.400Z,73.30
2019-06-07T22:52:44.160Z,73.60
2019-06-07T22:55:12.108Z,73.50
2019-06-07T22:57:53.676Z,73.70
2019-06-07T23:00:21.482Z,73.60
2019-06-07T23:02:49.240Z,73.90
2019-06-07T23:05:16.973Z,73.60
2019-06-07T23:07:44.740Z,73.80
2019-06-07T23:10:13.314Z,73.80
2019-06-07T23:12:41.438Z,73.60
2019-06-07T23:15:09.399Z,73.70
2019-06-07T23:17:40.398Z,73.80
2019-06-07T23:20:09.578Z,73.60
2019-06-07T23:22:39.940Z,73.80
2019-06-07T23:25:10.009Z,74.00
2019-06-07T23:27:40.668Z,73.60
2019-06-07T23:30:09.021Z,73.90
2019-06-07T23:32:41.164Z,73.60
2019-06-07T23:35:08.902Z,73.60
2019-06-07T23:37:39.286Z,73.60
2019-06-07T23:40:07.095Z,73.70
2019-06-07T23:42:34.821Z,73.90
2019-06-07T23:45:02.552Z,73.80
2019-06-07T23:47:30.614Z,73.80
2019-06-07T23:49:58.343Z,73.70
2019-06-07T23:52:26.080Z,73.70
2019-06-07T23:54:54.175Z,73.90
2019-06-07T23:57:22.673Z,73.80
2019-06-07T23:59:50.882Z,74.10
